sensor_id;sensor_type;location;lat;lon;timestamp;P1;durP1;ratioP1;P2;durP2;ratioP2
8562;SDS011;16392;52.508;13.468;2023-06-26T00:00:05;541.67;;;395.27;;
8562;SDS011;16392;52.508;13.468;2023-06-26T00:02:32;543.17;;;411.43;;
8562;SDS011;16392;52.508;13.468;2023-06-26T00:05:00;540.90;;;407.83;;
8562;SDS011;16392;52.508;13.468;2023-06-26T00:07:28;548.95;;;449.73;;
8562;SDS011;16392;52.508;13.468;2023-06-26T00:09:55;540.92;;;405.83;;
8562;SDS011;16392;52.508;13.468;2023-06-26T00:12:21;542.00;;;411.50;;
8562;SDS011;16392;52.508;13.468;2023-06-26T00:14:48;540.90;;;408.63;;
8562;SDS011;16392;52.508;13.468;2023-06-26T00:17:15;537.50;;;411.73;;
8562;SDS011;16392;52.508;13.468;2023-06-26T00:19:41;554.80;;;420.77;;
8562;SDS011;16392;52.508;13.468;2023-06-26T00:22:09;534.72;;;376.77;;
8562;SDS011;16392;52.508;13.468;2023-06-26T00:24:38;536.73;;;389.33;;
8562;SDS011;16392;52.508;13.468;2023-06-26T00:27:05;533.60;;;387.95;;
8562;SDS011;16392;52.508;13.468;2023-06-26T00:29:32;530.28;;;369.00;;
8562;SDS011;16392;52.508;13.468;2023-06-26T00:31:58;532.85;;;376.10;;
8562;SDS011;16392;52.508;13.468;2023-06-26T00:34:25;534.47;;;383.70;;
8562;SDS011;16392;52.508;13.468;2023-06-26T00:36:51;527.58;;;358.15;;
8562;SDS011;16392;52.508;13.468;2023-06-26T00:39:19;531.50;;;375.43;;
8562;SDS011;16392;52.508;13.468;2023-06-26T00:41:46;537.10;;;389.43;;
8562;SDS011;16392;52.508;13.468;2023-06-26T00:44:12;525.90;;;358.77;;
8562;SDS011;16392;52.508;13.468;2023-06-26T00:46:39;530.38;;;368.17;;
8562;SDS011;16392;52.508;13.468;2023-06-26T00:49:06;526.03;;;348.77;;
8562;SDS011;16392;52.508;13.468;2023-06-26T00:51:32;527.72;;;352.50;;
8562;SDS011;16392;52.508;13.468;2023-06-26T00:53:59;528.57;;;360.93;;
8562;SDS011;16392;52.508;13.468;2023-06-26T00:56:27;525.00;;;348.80;;
8562;SDS011;16392;52.508;13.468;2023-06-26T00:58:54;536.20;;;380.10;;
8562;SDS011;16392;52.508;13.468;2023-06-26T01:01:21;537.22;;;385.48;;
8562;SDS011;16392;52.508;13.468;2023-06-26T01:03:50;520.10;;;327.33;;
8562;SDS011;16392;52.508;13.468;2023-06-26T01:06:20;525.40;;;322.13;;
8562;SDS011;16392;52.508;13.468;2023-06-26T01:08:48;523.30;;;328.43;;
8562;SDS011;16392;52.508;13.468;2023-06-26T01:11:17;525.17;;;315.40;;
8562;SDS011;16392;52.508;13.468;2023-06-26T01:13:46;520.47;;;328.00;;
8562;SDS011;16392;52.508;13.468;2023-06-26T01:16:13;530.30;;;353.87;;
8562;SDS011;16392;52.508;13.468;2023-06-26T01:18:41;521.55;;;319.88;;
8562;SDS011;16392;52.508;13.468;2023-06-26T01:21:10;527.10;;;331.13;;
8562;SDS011;16392;52.508;13.468;2023-06-26T01:23:39;531.47;;;341.17;;
8562;SDS011;16392;52.508;13.468;2023-06-26T01:26:16;521.08;;;346.40;;
8562;SDS011;16392;52.508;13.468;2023-06-26T01:28:45;523.13;;;328.27;;
8562;SDS011;16392;52.508;13.468;2023-06-26T01:31:12;520.30;;;308.13;;
8562;SDS011;16392;52.508;13.468;2023-06-26T01:33:40;515.03;;;304.73;;
8562;SDS011;16392;52.508;13.468;2023-06-26T01:36:07;521.28;;;310.80;;
8562;SDS011;16392;52.508;13.468;2023-06-26T01:38:34;515.25;;;301.08;;
8562;SDS011;16392;52.508;13.468;2023-06-26T01:41:01;517.13;;;303.10;;
8562;SDS011;16392;52.508;13.468;2023-06-26T01:43:31;516.17;;;293.25;;
8562;SDS011;16392;52.508;13.468;2023-06-26T01:46:06;516.20;;;297.80;;
8562;SDS011;16392;52.508;13.468;2023-06-26T01:48:40;516.93;;;301.93;;
8562;SDS011;16392;52.508;13.468;2023-06-26T01:51:13;537.50;;;391.13;;
8562;SDS011;16392;52.508;13.468;2023-06-26T01:53:43;516.97;;;295.02;;
8562;SDS011;16392;52.508;13.468;2023-06-26T01:56:13;510.47;;;274.17;;
8562;SDS011;16392;52.508;13.468;2023-06-26T01:58:43;515.13;;;298.08;;
8562;SDS011;16392;52.508;13.468;2023-06-26T02:01:13;518.10;;;307.47;;
8562;SDS011;16392;52.508;13.468;2023-06-26T02:03:39;518.87;;;288.63;;
8562;SDS011;16392;52.508;13.468;2023-06-26T02:06:06;527.03;;;351.88;;
8562;SDS011;16392;52.508;13.468;2023-06-26T02:08:33;527.28;;;355.77;;
8562;SDS011;16392;52.508;13.468;2023-06-26T02:10:59;527.50;;;358.87;;
8562;SDS011;16392;52.508;13.468;2023-06-26T02:13:26;530.73;;;357.57;;
8562;SDS011;16392;52.508;13.468;2023-06-26T02:15:54;525.63;;;321.63;;
8562;SDS011;16392;52.508;13.468;2023-06-26T02:18:20;513.70;;;305.70;;
8562;SDS011;16392;52.508;13.468;2023-06-26T02:20:49;526.00;;;336.23;;
8562;SDS011;16392;52.508;13.468;2023-06-26T02:23:16;524.10;;;342.13;;
8562;SDS011;16392;52.508;13.468;2023-06-26T02:25:42;524.27;;;317.23;;
8562;SDS011;16392;52.508;13.468;2023-06-26T02:28:09;543.97;;;413.90;;
8562;SDS011;16392;52.508;13.468;2023-06-26T02:30:35;524.67;;;340.70;;
8562;SDS011;16392;52.508;13.468;2023-06-26T02:33:03;526.83;;;369.47;;
8562;SDS011;16392;52.508;13.468;2023-06-26T02:35:30;524.27;;;355.07;;
8562;SDS011;16392;52.508;13.468;2023-06-26T02:37:57;534.67;;;390.73;;
8562;SDS011;16392;52.508;13.468;2023-06-26T02:40:24;527.43;;;366.50;;
8562;SDS011;16392;52.508;13.468;2023-06-26T02:42:51;527.53;;;364.43;;
8562;SDS011;16392;52.508;13.468;2023-06-26T02:45:17;525.40;;;336.83;;
8562;SDS011;16392;52.508;13.468;2023-06-26T02:47:44;520.88;;;337.15;;
8562;SDS011;16392;52.508;13.468;2023-06-26T02:50:13;515.33;;;301.20;;
8562;SDS011;16392;52.508;13.468;2023-06-26T02:52:39;513.77;;;263.93;;
8562;SDS011;16392;52.508;13.468;2023-06-26T02:55:06;522.30;;;351.50;;
8562;SDS011;16392;52.508;13.468;2023-06-26T02:57:33;523.40;;;343.87;;
8562;SDS011;16392;52.508;13.468;2023-06-26T03:00:00;516.37;;;299.80;;
8562;SDS011;16392;52.508;13.468;2023-06-26T03:02:26;508.93;;;276.90;;
8562;SDS011;16392;52.508;13.468;2023-06-26T03:04:54;513.70;;;295.53;;
8562;SDS011;16392;52.508;13.468;2023-06-26T03:07:23;512.43;;;287.37;;
8562;SDS011;16392;52.508;13.468;2023-06-26T03:09:50;517.20;;;293.53;;
8562;SDS011;16392;52.508;13.468;2023-06-26T03:12:17;508.20;;;276.40;;
8562;SDS011;16392;52.508;13.468;2023-06-26T03:14:44;511.07;;;275.77;;
8562;SDS011;16392;52.508;13.468;2023-06-26T03:17:10;507.50;;;281.43;;
8562;SDS011;16392;52.508;13.468;2023-06-26T03:19:37;507.97;;;271.73;;
8562;SDS011;16392;52.508;13.468;2023-06-26T03:22:03;511.63;;;280.93;;
8562;SDS011;16392;52.508;13.468;2023-06-26T03:24:32;509.93;;;278.47;;
8562;SDS011;16392;52.508;13.468;2023-06-26T03:26:58;513.67;;;287.43;;
8562;SDS011;16392;52.508;13.468;2023-06-26T03:29:25;504.47;;;246.20;;
8562;SDS011;16392;52.508;13.468;2023-06-26T03:31:52;496.17;;;241.37;;
8562;SDS011;16392;52.508;13.468;2023-06-26T03:34:18;500.27;;;248.63;;
8562;SDS011;16392;52.508;13.468;2023-06-26T03:36:46;499.33;;;228.83;;
8562;SDS011;16392;52.508;13.468;2023-06-26T03:39:12;500.10;;;238.13;;
8562;SDS011;16392;52.508;13.468;2023-06-26T03:41:40;503.10;;;241.83;;
8562;SDS011;16392;52.508;13.468;2023-06-26T03:44:07;513.37;;;256.93;;
8562;SDS011;16392;52.508;13.468;2023-06-26T03:46:33;532.30;;;377.97;;
8562;SDS011;16392;52.508;13.468;2023-06-26T03:49:00;483.93;;;138.37;;
8562;SDS011;16392;52.508;13.468;2023-06-26T03:51:27;477.67;;;138.73;;
8562;SDS011;16392;52.508;13.468;2023-06-26T03:53:54;482.20;;;139.33;;
8562;SDS011;16392;52.508;13.468;2023-06-26T03:56:20;483.40;;;138.70;;
8562;SDS011;16392;52.508;13.468;2023-06-26T03:58:48;491.60;;;162.60;;
8562;SDS011;16392;52.508;13.468;2023-06-26T04:01:15;487.83;;;156.70;;
8562;SDS011;16392;52.508;13.468;2023-06-26T04:03:42;487.07;;;154.77;;
8562;SDS011;16392;52.508;13.468;2023-06-26T04:06:08;498.35;;;207.63;;
8562;SDS011;16392;52.508;13.468;2023-06-26T04:08:35;502.00;;;174.63;;
8562;SDS011;16392;52.508;13.468;2023-06-26T04:11:02;506.70;;;233.10;;
8562;SDS011;16392;52.508;13.468;2023-06-26T04:13:29;521.25;;;266.20;;
8562;SDS011;16392;52.508;13.468;2023-06-26T04:15:57;520.30;;;291.02;;
8562;SDS011;16392;52.508;13.468;2023-06-26T04:18:23;512.63;;;256.33;;
8562;SDS011;16392;52.508;13.468;2023-06-26T04:21:03;536.28;;;362.88;;
8562;SDS011;16392;52.508;13.468;2023-06-26T04:23:32;519.13;;;290.20;;
8562;SDS011;16392;52.508;13.468;2023-06-26T04:25:58;542.55;;;398.00;;
8562;SDS011;16392;52.508;13.468;2023-06-26T04:28:25;544.90;;;415.60;;
8562;SDS011;16392;52.508;13.468;2023-06-26T04:30:52;529.45;;;337.50;;
8562;SDS011;16392;52.508;13.468;2023-06-26T04:33:20;532.72;;;353.88;;
8562;SDS011;16392;52.508;13.468;2023-06-26T04:35:48;533.65;;;363.33;;
8562;SDS011;16392;52.508;13.468;2023-06-26T04:38:15;539.80;;;388.08;;
8562;SDS011;16392;52.508;13.468;2023-06-26T04:40:42;540.55;;;391.63;;
8562;SDS011;16392;52.508;13.468;2023-06-26T04:43:08;542.72;;;395.70;;
8562;SDS011;16392;52.508;13.468;2023-06-26T04:45:35;540.83;;;386.08;;
8562;SDS011;16392;52.508;13.468;2023-06-26T04:48:02;537.63;;;389.85;;
8562;SDS011;16392;52.508;13.468;2023-06-26T04:50:31;536.85;;;380.40;;
8562;SDS011;16392;52.508;13.468;2023-06-26T04:52:58;535.20;;;360.60;;
8562;SDS011;16392;52.508;13.468;2023-06-26T04:55:25;541.25;;;386.75;;
8562;SDS011;16392;52.508;13.468;2023-06-26T04:57:53;534.95;;;381.20;;
8562;SDS011;16392;52.508;13.468;2023-06-26T05:00:20;538.08;;;385.58;;
8562;SDS011;16392;52.508;13.468;2023-06-26T05:02:47;545.65;;;413.63;;
8562;SDS011;16392;52.508;13.468;2023-06-26T05:05:14;542.13;;;410.30;;
8562;SDS011;16392;52.508;13.468;2023-06-26T05:07:42;552.05;;;429.65;;
8562;SDS011;16392;52.508;13.468;2023-06-26T05:10:08;551.20;;;448.63;;
8562;SDS011;16392;52.508;13.468;2023-06-26T05:12:35;561.67;;;478.55;;
8562;SDS011;16392;52.508;13.468;2023-06-26T05:15:02;562.70;;;478.00;;
8562;SDS011;16392;52.508;13.468;2023-06-26T05:17:29;573.88;;;502.67;;
8562;SDS011;16392;52.508;13.468;2023-06-26T05:19:56;566.67;;;493.90;;
8562;SDS011;16392;52.508;13.468;2023-06-26T05:22:22;577.90;;;511.25;;
8562;SDS011;16392;52.508;13.468;2023-06-26T05:24:50;590.88;;;524.05;;
8562;SDS011;16392;52.508;13.468;2023-06-26T05:27:20;587.88;;;522.58;;
8562;SDS011;16392;52.508;13.468;2023-06-26T05:29:48;629.30;;;564.30;;
8562;SDS011;16392;52.508;13.468;2023-06-26T05:32:16;640.47;;;575.78;;
8562;SDS011;16392;52.508;13.468;2023-06-26T05:34:43;686.95;;;620.38;;
8562;SDS011;16392;52.508;13.468;2023-06-26T05:37:12;663.67;;;597.45;;
8562;SDS011;16392;52.508;13.468;2023-06-26T05:39:45;704.40;;;637.15;;
8562;SDS011;16392;52.508;13.468;2023-06-26T05:42:17;693.50;;;626.78;;
8562;SDS011;16392;52.508;13.468;2023-06-26T05:44:43;706.05;;;638.78;;
8562;SDS011;16392;52.508;13.468;2023-06-26T05:47:10;725.90;;;657.50;;
8562;SDS011;16392;52.508;13.468;2023-06-26T05:49:37;692.03;;;625.00;;
8562;SDS011;16392;52.508;13.468;2023-06-26T05:52:04;703.58;;;636.25;;
8562;SDS011;16392;52.508;13.468;2023-06-26T05:54:31;713.05;;;645.22;;
8562;SDS011;16392;52.508;13.468;2023-06-26T05:56:58;723.28;;;655.58;;
8562;SDS011;16392;52.508;13.468;2023-06-26T05:59:27;745.28;;;675.92;;
8562;SDS011;16392;52.508;13.468;2023-06-26T06:01:56;787.20;;;715.95;;
8562;SDS011;16392;52.508;13.468;2023-06-26T06:04:22;792.90;;;720.72;;
8562;SDS011;16392;52.508;13.468;2023-06-26T06:06:49;831.85;;;757.75;;
8562;SDS011;16392;52.508;13.468;2023-06-26T06:09:16;819.28;;;745.60;;
8562;SDS011;16392;52.508;13.468;2023-06-26T06:11:42;844.08;;;768.83;;
8562;SDS011;16392;52.508;13.468;2023-06-26T06:14:09;878.78;;;802.40;;
8562;SDS011;16392;52.508;13.468;2023-06-26T06:16:37;897.97;;;820.85;;
8562;SDS011;16392;52.508;13.468;2023-06-26T06:19:03;875.38;;;798.67;;
8562;SDS011;16392;52.508;13.468;2023-06-26T06:21:31;900.92;;;822.42;;
8562;SDS011;16392;52.508;13.468;2023-06-26T06:23:58;901.50;;;822.67;;
8562;SDS011;16392;52.508;13.468;2023-06-26T06:26:26;901.40;;;823.05;;
8562;SDS011;16392;52.508;13.468;2023-06-26T06:28:53;907.13;;;827.95;;
8562;SDS011;16392;52.508;13.468;2023-06-26T06:31:19;905.45;;;826.83;;
8562;SDS011;16392;52.508;13.468;2023-06-26T06:33:47;906.15;;;827.30;;
8562;SDS011;16392;52.508;13.468;2023-06-26T06:36:14;902.15;;;823.53;;
8562;SDS011;16392;52.508;13.468;2023-06-26T06:38:42;930.92;;;851.00;;
8562;SDS011;16392;52.508;13.468;2023-06-26T06:41:10;928.00;;;847.35;;
8562;SDS011;16392;52.508;13.468;2023-06-26T06:43:37;935.75;;;856.00;;
8562;SDS011;16392;52.508;13.468;2023-06-26T06:46:04;933.05;;;853.47;;
8562;SDS011;16392;52.508;13.468;2023-06-26T06:48:31;919.92;;;841.17;;
8562;SDS011;16392;52.508;13.468;2023-06-26T06:50:59;919.42;;;840.47;;
8562;SDS011;16392;52.508;13.468;2023-06-26T06:53:25;931.92;;;852.35;;
8562;SDS011;16392;52.508;13.468;2023-06-26T06:55:52;929.45;;;850.20;;
8562;SDS011;16392;52.508;13.468;2023-06-26T06:58:19;955.58;;;875.13;;
8562;SDS011;16392;52.508;13.468;2023-06-26T07:00:47;954.25;;;874.15;;
8562;SDS011;16392;52.508;13.468;2023-06-26T07:03:17;947.92;;;867.88;;
8562;SDS011;16392;52.508;13.468;2023-06-26T07:05:44;942.60;;;862.67;;
8562;SDS011;16392;52.508;13.468;2023-06-26T07:08:12;954.50;;;874.05;;
8562;SDS011;16392;52.508;13.468;2023-06-26T07:10:39;947.33;;;867.30;;
8562;SDS011;16392;52.508;13.468;2023-06-26T07:13:06;938.85;;;859.42;;
8562;SDS011;16392;52.508;13.468;2023-06-26T07:15:32;944.78;;;865.33;;
8562;SDS011;16392;52.508;13.468;2023-06-26T07:17:59;968.10;;;887.42;;
8562;SDS011;16392;52.508;13.468;2023-06-26T07:20:25;965.72;;;885.00;;
8562;SDS011;16392;52.508;13.468;2023-06-26T07:22:52;964.78;;;883.88;;
8562;SDS011;16392;52.508;13.468;2023-06-26T07:25:20;959.10;;;878.35;;
8562;SDS011;16392;52.508;13.468;2023-06-26T07:27:46;956.25;;;875.97;;
8562;SDS011;16392;52.508;13.468;2023-06-26T07:30:13;956.78;;;876.35;;
8562;SDS011;16392;52.508;13.468;2023-06-26T07:32:39;968.40;;;887.83;;
8562;SDS011;16392;52.508;13.468;2023-06-26T07:35:07;965.85;;;885.45;;
8562;SDS011;16392;52.508;13.468;2023-06-26T07:37:34;965.72;;;884.60;;
8562;SDS011;16392;52.508;13.468;2023-06-26T07:40:00;957.70;;;877.10;;
8562;SDS011;16392;52.508;13.468;2023-06-26T07:42:28;967.63;;;886.40;;
8562;SDS011;16392;52.508;13.468;2023-06-26T07:44:55;971.05;;;889.75;;
8562;SDS011;16392;52.508;13.468;2023-06-26T07:47:21;953.95;;;873.40;;
8562;SDS011;16392;52.508;13.468;2023-06-26T07:49:48;961.83;;;881.40;;
8562;SDS011;16392;52.508;13.468;2023-06-26T07:52:15;965.17;;;884.10;;
8562;SDS011;16392;52.508;13.468;2023-06-26T07:54:41;949.92;;;869.55;;
8562;SDS011;16392;52.508;13.468;2023-06-26T07:57:08;950.75;;;870.85;;
8562;SDS011;16392;52.508;13.468;2023-06-26T07:59:37;957.97;;;877.63;;
8562;SDS011;16392;52.508;13.468;2023-06-26T08:02:04;963.53;;;882.08;;
8562;SDS011;16392;52.508;13.468;2023-06-26T08:04:31;964.10;;;882.72;;
8562;SDS011;16392;52.508;13.468;2023-06-26T08:06:59;966.88;;;885.53;;
8562;SDS011;16392;52.508;13.468;2023-06-26T08:09:26;961.53;;;880.58;;
8562;SDS011;16392;52.508;13.468;2023-06-26T08:11:54;947.17;;;866.80;;
8562;SDS011;16392;52.508;13.468;2023-06-26T08:14:21;952.92;;;871.58;;
8562;SDS011;16392;52.508;13.468;2023-06-26T08:16:49;961.30;;;880.30;;
8562;SDS011;16392;52.508;13.468;2023-06-26T08:19:17;964.85;;;883.97;;
8562;SDS011;16392;52.508;13.468;2023-06-26T08:21:44;960.65;;;880.13;;
8562;SDS011;16392;52.508;13.468;2023-06-26T08:24:12;974.60;;;892.72;;
8562;SDS011;16392;52.508;13.468;2023-06-26T08:26:41;959.15;;;878.00;;
8562;SDS011;16392;52.508;13.468;2023-06-26T08:29:07;967.97;;;886.08;;
8562;SDS011;16392;52.508;13.468;2023-06-26T08:31:34;968.75;;;887.10;;
8562;SDS011;16392;52.508;13.468;2023-06-26T08:34:02;979.10;;;896.50;;
8562;SDS011;16392;52.508;13.468;2023-06-26T08:36:29;987.65;;;904.65;;
8562;SDS011;16392;52.508;13.468;2023-06-26T08:38:56;987.25;;;903.90;;
8562;SDS011;16392;52.508;13.468;2023-06-26T08:41:23;980.10;;;897.47;;
8562;SDS011;16392;52.508;13.468;2023-06-26T08:43:49;967.30;;;885.08;;
8562;SDS011;16392;52.508;13.468;2023-06-26T08:46:17;974.80;;;891.97;;
8562;SDS011;16392;52.508;13.468;2023-06-26T08:48:45;980.70;;;897.72;;
8562;SDS011;16392;52.508;13.468;2023-06-26T08:51:17;980.30;;;897.85;;
8562;SDS011;16392;52.508;13.468;2023-06-26T08:53:47;974.45;;;892.45;;
8562;SDS011;16392;52.508;13.468;2023-06-26T08:56:18;987.28;;;904.30;;
8562;SDS011;16392;52.508;13.468;2023-06-26T08:58:47;973.95;;;891.72;;
8562;SDS011;16392;52.508;13.468;2023-06-26T09:01:14;987.17;;;904.22;;
8562;SDS011;16392;52.508;13.468;2023-06-26T09:03:41;976.03;;;893.60;;
8562;SDS011;16392;52.508;13.468;2023-06-26T09:06:08;974.67;;;892.10;;
8562;SDS011;16392;52.508;13.468;2023-06-26T09:08:37;978.20;;;895.53;;
8562;SDS011;16392;52.508;13.468;2023-06-26T09:11:03;984.15;;;900.78;;
8562;SDS011;16392;52.508;13.468;2023-06-26T09:13:30;988.22;;;904.20;;
8562;SDS011;16392;52.508;13.468;2023-06-26T09:15:57;997.08;;;912.80;;
8562;SDS011;16392;52.508;13.468;2023-06-26T09:18:24;992.70;;;908.70;;
8562;SDS011;16392;52.508;13.468;2023-06-26T09:20:51;992.67;;;908.83;;
8562;SDS011;16392;52.508;13.468;2023-06-26T09:23:17;980.63;;;897.35;;
8562;SDS011;16392;52.508;13.468;2023-06-26T09:25:46;979.28;;;895.90;;
8562;SDS011;16392;52.508;13.468;2023-06-26T09:28:13;994.65;;;910.13;;
8562;SDS011;16392;52.508;13.468;2023-06-26T09:30:40;984.25;;;900.97;;
8562;SDS011;16392;52.508;13.468;2023-06-26T09:33:14;977.50;;;894.53;;
8562;SDS011;16392;52.508;13.468;2023-06-26T09:35:41;975.00;;;892.13;;
8562;SDS011;16392;52.508;13.468;2023-06-26T09:38:08;989.30;;;905.05;;
8562;SDS011;16392;52.508;13.468;2023-06-26T09:40:34;995.92;;;911.83;;
8562;SDS011;16392;52.508;13.468;2023-06-26T09:43:04;1007.92;;;922.72;;
8562;SDS011;16392;52.508;13.468;2023-06-26T09:45:31;1001.17;;;916.53;;
8562;SDS011;16392;52.508;13.468;2023-06-26T09:47:59;1001.05;;;916.08;;
8562;SDS011;16392;52.508;13.468;2023-06-26T09:50:28;1001.72;;;917.20;;
8562;SDS011;16392;52.508;13.468;2023-06-26T09:52:57;990.28;;;905.83;;
8562;SDS011;16392;52.508;13.468;2023-06-26T09:55:23;1003.72;;;919.58;;
8562;SDS011;16392;52.508;13.468;2023-06-26T09:57:52;992.05;;;908.42;;
8562;SDS011;16392;52.508;13.468;2023-06-26T10:00:24;1005.53;;;921.53;;
8562;SDS011;16392;52.508;13.468;2023-06-26T10:02:50;993.92;;;909.50;;
8562;SDS011;16392;52.508;13.468;2023-06-26T10:05:17;976.58;;;893.58;;
8562;SDS011;16392;52.508;13.468;2023-06-26T10:07:43;984.40;;;900.95;;
8562;SDS011;16392;52.508;13.468;2023-06-26T10:10:11;1004.80;;;920.30;;
8562;SDS011;16392;52.508;13.468;2023-06-26T10:12:38;992.92;;;909.08;;
8562;SDS011;16392;52.508;13.468;2023-06-26T10:15:05;990.45;;;906.78;;
8562;SDS011;16392;52.508;13.468;2023-06-26T10:17:40;982.20;;;898.72;;
8562;SDS011;16392;52.508;13.468;2023-06-26T10:20:09;995.42;;;911.28;;
8562;SDS011;16392;52.508;13.468;2023-06-26T10:22:37;1005.53;;;920.90;;
8562;SDS011;16392;52.508;13.468;2023-06-26T10:25:08;1000.13;;;915.75;;
8562;SDS011;16392;52.508;13.468;2023-06-26T10:27:38;1001.92;;;917.92;;
8562;SDS011;16392;52.508;13.468;2023-06-26T10:30:09;993.80;;;910.25;;
8562;SDS011;16392;52.508;13.468;2023-06-26T10:32:41;987.25;;;903.83;;
8562;SDS011;16392;52.508;13.468;2023-06-26T10:35:08;982.38;;;899.03;;
8562;SDS011;16392;52.508;13.468;2023-06-26T10:37:43;981.95;;;899.00;;
8562;SDS011;16392;52.508;13.468;2023-06-26T10:40:10;978.03;;;895.08;;
8562;SDS011;16392;52.508;13.468;2023-06-26T10:42:38;997.28;;;913.92;;
8562;SDS011;16392;52.508;13.468;2023-06-26T10:45:09;987.45;;;904.15;;
8562;SDS011;16392;52.508;13.468;2023-06-26T10:47:37;978.35;;;895.25;;
8562;SDS011;16392;52.508;13.468;2023-06-26T10:50:17;981.90;;;899.15;;
8562;SDS011;16392;52.508;13.468;2023-06-26T10:52:45;995.70;;;912.22;;
8562;SDS011;16392;52.508;13.468;2023-06-26T10:55:32;985.60;;;902.75;;
8562;SDS011;16392;52.508;13.468;2023-06-26T10:57:59;979.90;;;897.17;;
8562;SDS011;16392;52.508;13.468;2023-06-26T11:00:25;987.92;;;904.58;;
8562;SDS011;16392;52.508;13.468;2023-06-26T11:02:53;978.17;;;895.72;;
8562;SDS011;16392;52.508;13.468;2023-06-26T11:05:23;996.10;;;912.25;;
8562;SDS011;16392;52.508;13.468;2023-06-26T11:08:04;1019.65;;;934.63;;
8562;SDS011;16392;52.508;13.468;2023-06-26T11:10:48;1011.60;;;926.28;;
8562;SDS011;16392;52.508;13.468;2023-06-26T11:13:18;1031.68;;;945.85;;
8562;SDS011;16392;52.508;13.468;2023-06-26T11:15:45;1026.55;;;940.88;;
8562;SDS011;16392;52.508;13.468;2023-06-26T11:18:14;1031.28;;;945.17;;
8562;SDS011;16392;52.508;13.468;2023-06-26T11:20:40;1021.53;;;935.63;;
8562;SDS011;16392;52.508;13.468;2023-06-26T11:23:07;1023.65;;;938.13;;
8562;SDS011;16392;52.508;13.468;2023-06-26T11:25:35;1030.72;;;944.65;;
8562;SDS011;16392;52.508;13.468;2023-06-26T11:28:02;1018.67;;;933.10;;
8562;SDS011;16392;52.508;13.468;2023-06-26T11:30:29;1031.28;;;945.58;;
8562;SDS011;16392;52.508;13.468;2023-06-26T11:33:02;1022.75;;;937.25;;
8562;SDS011;16392;52.508;13.468;2023-06-26T11:35:31;1039.47;;;952.67;;
8562;SDS011;16392;52.508;13.468;2023-06-26T11:37:57;1032.50;;;946.05;;
8562;SDS011;16392;52.508;13.468;2023-06-26T11:40:30;1041.68;;;955.00;;
8562;SDS011;16392;52.508;13.468;2023-06-26T11:42:57;1034.32;;;948.05;;
8562;SDS011;16392;52.508;13.468;2023-06-26T11:45:25;1037.25;;;949.83;;
8562;SDS011;16392;52.508;13.468;2023-06-26T11:47:54;1041.78;;;954.35;;
8562;SDS011;16392;52.508;13.468;2023-06-26T11:50:21;1035.50;;;949.10;;
8562;SDS011;16392;52.508;13.468;2023-06-26T11:52:53;1031.00;;;945.35;;
8562;SDS011;16392;52.508;13.468;2023-06-26T11:55:21;1031.47;;;945.80;;
8562;SDS011;16392;52.508;13.468;2023-06-26T11:57:48;1023.63;;;938.05;;
8562;SDS011;16392;52.508;13.468;2023-06-26T12:00:16;1026.57;;;940.42;;
8562;SDS011;16392;52.508;13.468;2023-06-26T12:02:44;1014.25;;;928.28;;
8562;SDS011;16392;52.508;13.468;2023-06-26T12:05:12;1023.28;;;937.47;;
8562;SDS011;16392;52.508;13.468;2023-06-26T12:07:40;1018.97;;;933.28;;
8562;SDS011;16392;52.508;13.468;2023-06-26T12:10:10;1027.28;;;940.80;;
8562;SDS011;16392;52.508;13.468;2023-06-26T12:12:37;1048.63;;;960.13;;
8562;SDS011;16392;52.508;13.468;2023-06-26T12:15:05;1048.95;;;960.22;;
8562;SDS011;16392;52.508;13.468;2023-06-26T12:17:33;1073.10;;;982.05;;
8562;SDS011;16392;52.508;13.468;2023-06-26T12:20:03;1083.32;;;992.22;;
8562;SDS011;16392;52.508;13.468;2023-06-26T12:22:35;1089.10;;;996.80;;
8562;SDS011;16392;52.508;13.468;2023-06-26T12:25:02;1053.13;;;964.75;;
8562;SDS011;16392;52.508;13.468;2023-06-26T12:27:30;1052.07;;;963.42;;
8562;SDS011;16392;52.508;13.468;2023-06-26T12:29:57;1051.30;;;963.53;;
8562;SDS011;16392;52.508;13.468;2023-06-26T12:32:23;1041.95;;;954.78;;
8562;SDS011;16392;52.508;13.468;2023-06-26T12:34:51;1040.45;;;953.47;;
8562;SDS011;16392;52.508;13.468;2023-06-26T12:37:18;1060.50;;;972.05;;
8562;SDS011;16392;52.508;13.468;2023-06-26T12:39:45;1043.75;;;956.00;;
8562;SDS011;16392;52.508;13.468;2023-06-26T12:42:13;1042.88;;;955.25;;
8562;SDS011;16392;52.508;13.468;2023-06-26T12:44:42;1030.22;;;943.25;;
8562;SDS011;16392;52.508;13.468;2023-06-26T12:47:08;1016.60;;;930.53;;
8562;SDS011;16392;52.508;13.468;2023-06-26T12:49:38;1029.28;;;942.60;;
8562;SDS011;16392;52.508;13.468;2023-06-26T12:52:06;1012.88;;;927.33;;
8562;SDS011;16392;52.508;13.468;2023-06-26T12:54:33;1018.85;;;932.85;;
8562;SDS011;16392;52.508;13.468;2023-06-26T12:57:00;1014.60;;;928.72;;
8562;SDS011;16392;52.508;13.468;2023-06-26T12:59:28;1014.63;;;928.17;;
8562;SDS011;16392;52.508;13.468;2023-06-26T13:01:56;1025.13;;;938.33;;
8562;SDS011;16392;52.508;13.468;2023-06-26T13:04:23;1020.72;;;934.53;;
8562;SDS011;16392;52.508;13.468;2023-06-26T13:06:50;1018.13;;;931.85;;
8562;SDS011;16392;52.508;13.468;2023-06-26T13:09:17;1010.20;;;925.08;;
8562;SDS011;16392;52.508;13.468;2023-06-26T13:11:43;1006.50;;;921.38;;
8562;SDS011;16392;52.508;13.468;2023-06-26T13:14:10;985.58;;;901.72;;
8562;SDS011;16392;52.508;13.468;2023-06-26T13:16:36;984.38;;;900.80;;
8562;SDS011;16392;52.508;13.468;2023-06-26T13:19:05;982.90;;;899.47;;
8562;SDS011;16392;52.508;13.468;2023-06-26T13:21:31;975.97;;;892.97;;
8562;SDS011;16392;52.508;13.468;2023-06-26T13:23:58;966.60;;;884.20;;
8562;SDS011;16392;52.508;13.468;2023-06-26T13:26:25;954.42;;;872.45;;
8562;SDS011;16392;52.508;13.468;2023-06-26T13:28:53;959.47;;;877.65;;
8562;SDS011;16392;52.508;13.468;2023-06-26T13:31:20;949.60;;;868.08;;
8562;SDS011;16392;52.508;13.468;2023-06-26T13:33:47;970.85;;;888.78;;
8562;SDS011;16392;52.508;13.468;2023-06-26T13:36:16;960.25;;;878.20;;
8562;SDS011;16392;52.508;13.468;2023-06-26T13:38:42;939.33;;;858.88;;
8562;SDS011;16392;52.508;13.468;2023-06-26T13:41:09;945.08;;;864.00;;
8562;SDS011;16392;52.508;13.468;2023-06-26T13:43:36;948.28;;;866.78;;
8562;SDS011;16392;52.508;13.468;2023-06-26T13:46:03;942.22;;;861.20;;
8562;SDS011;16392;52.508;13.468;2023-06-26T13:48:29;942.85;;;861.78;;
8562;SDS011;16392;52.508;13.468;2023-06-26T13:50:56;941.38;;;860.40;;
8562;SDS011;16392;52.508;13.468;2023-06-26T13:53:25;951.53;;;870.10;;
8562;SDS011;16392;52.508;13.468;2023-06-26T13:55:52;940.78;;;859.65;;